Terminal Aerodrome Forecast
Issued by NWS Brownsville, TX

Current Version | Previous Version | Text Only | Print | Product List | Glossary On
Versions: 1 2 3 4 5 6 7 8 9 10 11 12 13 14 15
335
FTUS44 KBRO 250520
TAFBRO
TAF
KBRO 250520Z 2506/2606 16005KT P6SM SKC
     FM251500 18015G20KT P6SM SKC
     FM252300 18011KT P6SM SKC=

USA.gov is the U.S. government's official web portal to all federal, state and local government web resources and services.